createdAt,value
2019-05-26T00:02:57.597Z,39.15
2019-05-26T00:05:59.204Z,45.10
2019-05-26T00:09:00.432Z,39.35
2019-05-26T00:12:01.964Z,34.25
2019-05-26T00:15:05.960Z,42.35
2019-05-26T00:18:07.397Z,43.92
2019-05-26T00:21:08.641Z,36.48
2019-05-26T00:24:10.320Z,46.02
2019-05-26T00:27:11.670Z,45.85
2019-05-26T00:30:13.027Z,41.83
2019-05-26T00:33:14.278Z,48.87
2019-05-26T00:36:16.173Z,60.40
2019-05-26T00:39:17.385Z,54.25
2019-05-26T00:42:18.828Z,55.17
2019-05-26T00:45:20.076Z,66.97
2019-05-26T00:48:21.477Z,54.65
2019-05-26T00:51:23.445Z,61.92
2019-05-26T00:54:24.998Z,62.15
2019-05-26T00:57:26.237Z,48.60
2019-05-26T01:00:38.886Z,46.02
2019-05-26T01:03:40.116Z,56.50
2019-05-26T01:06:41.367Z,60.40
2019-05-26T01:09:42.849Z,46.92
2019-05-26T01:12:44.060Z,49.90
2019-05-26T01:15:45.326Z,52.27
2019-05-26T01:18:46.557Z,53.90
2019-05-26T01:21:47.829Z,48.73
2019-05-26T01:24:49.057Z,41.70
2019-05-26T01:27:50.504Z,40.05
2019-05-26T01:30:51.741Z,37.83
2019-05-26T01:33:53.183Z,47.55
2019-05-26T01:36:54.525Z,40.25
2019-05-26T01:39:55.765Z,38.95
2019-05-26T01:42:57.137Z,49.93
2019-05-26T01:45:58.365Z,37.28
2019-05-26T01:48:59.742Z,37.10
2019-05-26T01:52:01.360Z,38.25
2019-05-26T01:55:04.761Z,37.85
2019-05-26T01:58:05.998Z,37.93
2019-05-26T02:01:07.314Z,33.02
2019-05-26T02:04:08.713Z,38.10
2019-05-26T02:07:10.436Z,36.40
2019-05-26T02:10:11.683Z,40.52
2019-05-26T02:13:13.117Z,37.50
2019-05-26T02:16:14.352Z,41.92
2019-05-26T02:19:15.802Z,50.95
2019-05-26T02:22:17.048Z,47.62
2019-05-26T02:25:18.890Z,53.87
2019-05-26T02:28:20.116Z,49.83
2019-05-26T02:31:21.557Z,53.28
2019-05-26T02:34:22.925Z,56.30
2019-05-26T02:37:24.170Z,52.67
2019-05-26T02:40:25.603Z,61.98
2019-05-26T02:43:26.835Z,42.88
2019-05-26T02:46:28.381Z,42.53
2019-05-26T02:49:29.610Z,43.15
2019-05-26T02:52:32.051Z,38.53
2019-05-26T02:55:33.289Z,39.05
2019-05-26T02:58:34.548Z,40.58
2019-05-26T03:01:35.981Z,45.00
2019-05-26T03:04:37.206Z,40.90
2019-05-26T03:07:44.210Z,36.13
2019-05-26T03:10:45.463Z,34.88
2019-05-26T03:13:46.715Z,35.10
2019-05-26T03:16:48.202Z,28.92
2019-05-26T03:19:49.765Z,31.77
2019-05-26T03:22:50.994Z,36.40
2019-05-26T03:25:52.438Z,30.32
2019-05-26T03:28:53.670Z,25.88
2019-05-26T03:31:55.118Z,25.08
2019-05-26T03:34:56.464Z,25.50
2019-05-26T03:37:57.899Z,27.50
2019-05-26T03:40:59.131Z,22.32
2019-05-26T03:44:00.566Z,26.02
2019-05-26T03:47:01.799Z,24.40
2019-05-26T03:50:06.120Z,25.48
2019-05-26T03:53:07.370Z,22.07
2019-05-26T03:56:08.794Z,26.48
2019-05-26T03:59:10.030Z,31.97
2019-05-26T04:02:11.489Z,27.45
2019-05-26T04:05:12.716Z,23.77
2019-05-26T04:08:14.175Z,20.72
2019-05-26T04:11:15.387Z,22.35
2019-05-26T04:14:16.651Z,25.75
2019-05-26T04:17:17.886Z,20.65
2019-05-26T04:20:19.246Z,22.07
2019-05-26T04:23:20.715Z,25.20
2019-05-26T04:26:22.094Z,18.73
2019-05-26T04:29:23.622Z,17.73
2019-05-26T04:32:24.995Z,17.80
2019-05-26T04:35:26.223Z,20.27
2019-05-26T04:38:27.792Z,17.55
2019-05-26T04:41:29.042Z,20.37
2019-05-26T04:44:30.297Z,16.05
2019-05-26T04:47:31.739Z,16.57
2019-05-26T04:50:33.017Z,18.73
2019-05-26T04:53:35.381Z,19.48
2019-05-26T04:56:36.622Z,18.98
2019-05-26T04:59:37.974Z,19.20
2019-05-26T05:02:39.222Z,14.53
2019-05-26T05:05:40.693Z,18.87
2019-05-26T05:08:41.960Z,17.45
2019-05-26T05:11:43.209Z,22.62
2019-05-26T05:14:44.448Z,16.48
2019-05-26T05:17:46.362Z,17.45
2019-05-26T05:20:47.672Z,17.75
2019-05-26T05:23:49.040Z,21.75
2019-05-26T05:26:50.283Z,19.82
2019-05-26T05:29:51.913Z,16.67
2019-05-26T05:32:53.182Z,15.28
2019-05-26T05:35:54.669Z,16.25
2019-05-26T05:38:55.960Z,13.50
2019-05-26T05:41:57.397Z,16.70
2019-05-26T05:44:59.088Z,13.10
2019-05-26T05:48:00.442Z,14.70
2019-05-26T05:51:01.886Z,11.88
2019-05-26T05:54:03.947Z,14.65
2019-05-26T05:57:05.570Z,10.80
2019-05-26T06:00:07.757Z,11.63
2019-05-26T06:03:10.741Z,11.35
2019-05-26T06:06:12.513Z,11.93
2019-05-26T06:09:14.208Z,11.18
2019-05-26T06:12:15.592Z,15.18
2019-05-26T06:15:17.745Z,11.33
2019-05-26T06:18:19.141Z,8.68
2019-05-26T06:21:20.890Z,9.55
2019-05-26T06:24:22.174Z,10.55
2019-05-26T06:27:23.448Z,8.05
2019-05-26T06:30:24.716Z,9.53
2019-05-26T06:33:26.175Z,10.05
2019-05-26T06:36:27.426Z,11.00
2019-05-26T06:39:28.972Z,9.15
2019-05-26T06:45:55.118Z,10.15
2019-05-26T06:48:56.418Z,7.17
2019-05-26T06:51:57.761Z,13.38
2019-05-26T06:54:59.128Z,8.98
2019-05-26T06:58:00.866Z,8.88
2019-05-26T07:01:02.320Z,10.08
2019-05-26T07:04:03.820Z,9.35
2019-05-26T07:07:05.070Z,7.70
2019-05-26T07:10:07.153Z,10.58
2019-05-26T07:13:08.419Z,8.75
2019-05-26T07:16:10.756Z,7.83
2019-05-26T07:19:11.993Z,10.00
2019-05-26T07:22:13.494Z,9.15
2019-05-26T07:25:15.066Z,7.40
2019-05-26T07:28:16.663Z,9.40
2019-05-26T07:31:18.175Z,8.58
2019-05-26T07:34:19.427Z,5.80
2019-05-26T07:37:21.030Z,7.72
2019-05-26T07:40:22.592Z,8.60
2019-05-26T07:43:27.877Z,8.68
2019-05-26T07:46:28.638Z,7.87
2019-05-26T07:49:29.918Z,8.98
2019-05-26T07:52:34.102Z,8.78
2019-05-26T07:55:35.710Z,6.58
2019-05-26T07:58:37.089Z,7.05
2019-05-26T08:01:38.566Z,7.97
2019-05-26T08:04:39.864Z,7.37
2019-05-26T08:07:41.274Z,7.70
2019-05-26T08:10:42.562Z,10.95
2019-05-26T08:13:43.849Z,6.17
2019-05-26T08:16:45.308Z,8.98
2019-05-26T08:19:47.136Z,11.10
2019-05-26T08:22:48.397Z,11.30
2019-05-26T08:25:49.990Z,8.35
2019-05-26T08:28:53.596Z,7.17
2019-05-26T08:31:55.831Z,8.25
2019-05-26T08:34:57.826Z,7.75
2019-05-26T08:38:00.391Z,10.35
2019-05-26T08:41:02.051Z,13.22
2019-05-26T08:44:04.402Z,7.28
2019-05-26T08:47:05.654Z,13.98
2019-05-26T08:50:07.368Z,10.78
2019-05-26T08:53:08.821Z,9.98
2019-05-26T08:56:10.954Z,7.65
2019-05-26T08:59:12.764Z,8.45
2019-05-26T09:02:15.047Z,9.78
2019-05-26T09:05:16.408Z,10.65
2019-05-26T09:08:18.208Z,8.88
2019-05-26T09:11:20.061Z,7.72
2019-05-26T09:14:21.555Z,10.50
2019-05-26T09:17:22.802Z,13.60
2019-05-26T09:20:24.714Z,8.83
2019-05-26T09:23:26.461Z,9.73
2019-05-26T09:26:27.861Z,8.95
2019-05-26T09:29:29.383Z,8.35
2019-05-26T09:32:30.885Z,6.47
2019-05-26T09:35:32.129Z,8.90
2019-05-26T09:38:33.427Z,7.67
2019-05-26T09:41:35.442Z,8.08
2019-05-26T09:44:36.949Z,7.10
2019-05-26T09:47:39.120Z,6.62
2019-05-26T09:50:40.609Z,8.28
2019-05-26T09:53:42.382Z,7.17
2019-05-26T09:56:44.657Z,6.75
2019-05-26T09:59:46.493Z,7.83
2019-05-26T10:02:47.949Z,9.43
2019-05-26T10:05:49.257Z,6.92
2019-05-26T10:08:50.825Z,7.45
2019-05-26T10:11:52.361Z,7.20
2019-05-26T10:14:53.662Z,8.63
2019-05-26T10:17:55.232Z,9.10
2019-05-26T10:20:56.533Z,8.85
2019-05-26T10:23:58.046Z,7.62
2019-05-26T10:26:59.304Z,9.28
2019-05-26T10:30:00.657Z,9.50
2019-05-26T10:33:01.890Z,6.67
2019-05-26T10:36:03.459Z,7.53
2019-05-26T10:39:06.498Z,9.00
2019-05-26T10:42:07.747Z,7.30
2019-05-26T10:45:09.323Z,5.90
2019-05-26T10:48:12.469Z,9.70
2019-05-26T10:51:13.720Z,6.58
2019-05-26T10:54:14.993Z,6.25
2019-05-26T10:57:16.716Z,6.42
2019-05-26T11:00:17.967Z,6.97
2019-05-26T11:03:19.418Z,6.35
2019-05-26T11:06:20.647Z,9.78
2019-05-26T11:09:22.089Z,5.83
2019-05-26T11:12:23.705Z,6.92
2019-05-26T11:15:25.093Z,5.92
2019-05-26T11:18:26.349Z,8.25
2019-05-26T11:21:28.027Z,4.70
2019-05-26T11:24:29.277Z,7.67
2019-05-26T11:27:30.744Z,6.40
2019-05-26T11:30:31.999Z,6.87
2019-05-26T11:33:33.580Z,10.10
2019-05-26T11:36:34.912Z,6.83
2019-05-26T11:39:36.177Z,6.70
2019-05-26T11:42:37.429Z,5.20
2019-05-26T11:45:38.905Z,5.30
2019-05-26T11:48:40.830Z,5.78
2019-05-26T11:51:42.394Z,5.50
2019-05-26T11:54:43.639Z,5.62
2019-05-26T11:57:44.881Z,5.83
2019-05-26T12:00:46.169Z,4.65
2019-05-26T12:03:47.611Z,5.95
2019-05-26T12:06:48.854Z,6.28
2019-05-26T12:09:50.115Z,9.85
2019-05-26T12:12:51.386Z,4.80
2019-05-26T12:15:52.936Z,7.28
2019-05-26T12:18:54.353Z,5.53
2019-05-26T12:21:55.760Z,4.53
2019-05-26T12:24:57.017Z,5.28
2019-05-26T12:27:58.461Z,5.62
2019-05-26T12:30:59.755Z,4.30
2019-05-26T12:34:01.170Z,8.08
2019-05-26T12:37:02.517Z,6.33
2019-05-26T12:40:06.666Z,3.67
2019-05-26T12:43:07.997Z,6.05
2019-05-26T12:46:09.273Z,4.58
2019-05-26T12:49:10.581Z,5.00
2019-05-26T12:52:13.287Z,4.28
2019-05-26T12:55:15.157Z,4.10
2019-05-26T12:58:16.670Z,4.12
2019-05-26T13:01:17.890Z,4.53
2019-05-26T13:04:20.123Z,5.40
2019-05-26T13:07:21.358Z,5.60
2019-05-26T13:10:23.051Z,5.17
2019-05-26T13:13:24.354Z,5.85
2019-05-26T13:16:26.163Z,3.47
2019-05-26T13:19:27.377Z,4.47
2019-05-26T13:22:29.029Z,3.22
2019-05-26T13:25:30.268Z,4.15
2019-05-26T13:28:31.525Z,6.87
2019-05-26T13:31:32.975Z,3.52
2019-05-26T13:34:35.805Z,8.63
2019-05-26T13:37:37.469Z,5.22
2019-05-26T13:40:38.936Z,4.30
2019-05-26T13:43:40.916Z,3.65
2019-05-26T13:46:42.889Z,6.90
2019-05-26T13:49:44.780Z,3.75
2019-05-26T13:52:46.535Z,4.05
2019-05-26T13:55:49.396Z,4.42
2019-05-26T13:58:51.183Z,5.17
2019-05-26T14:01:52.469Z,4.75
2019-05-26T14:04:53.901Z,6.40
2019-05-26T14:07:55.527Z,4.72
2019-05-26T14:10:56.882Z,4.10
2019-05-26T14:13:58.618Z,3.58
2019-05-26T14:16:59.866Z,4.87
2019-05-26T14:20:02.814Z,4.00
2019-05-26T14:23:05.496Z,7.55
2019-05-26T14:26:06.730Z,5.15
2019-05-26T14:29:08.084Z,3.37
2019-05-26T14:32:09.869Z,3.22
2019-05-26T14:35:11.137Z,4.87
2019-05-26T14:38:12.786Z,3.30
2019-05-26T14:41:14.222Z,6.62
2019-05-26T14:44:15.718Z,3.98
2019-05-26T14:47:17.003Z,7.25
2019-05-26T14:50:18.400Z,3.00
2019-05-26T14:53:20.158Z,3.65
2019-05-26T14:56:22.334Z,5.05
2019-05-26T14:59:24.211Z,5.08
2019-05-26T15:02:25.447Z,3.80
2019-05-26T15:05:27.138Z,5.45
2019-05-26T15:08:28.422Z,4.15
2019-05-26T15:11:29.788Z,4.62
2019-05-26T15:14:31.025Z,3.37
2019-05-26T15:17:32.389Z,4.62
2019-05-26T15:20:33.647Z,30.50
2019-05-26T15:23:35.030Z,13.45
2019-05-26T15:26:36.279Z,5.25
2019-05-26T15:29:37.525Z,4.25
2019-05-26T15:32:38.931Z,3.22
2019-05-26T15:35:44.829Z,3.20
2019-05-26T15:38:46.090Z,3.72
2019-05-26T15:41:47.359Z,3.87
2019-05-26T15:44:55.148Z,4.10
2019-05-26T15:47:56.492Z,5.90
2019-05-26T15:51:01.002Z,4.50
2019-05-26T15:54:02.722Z,6.00
2019-05-26T15:57:05.728Z,4.47
2019-05-26T16:00:08.720Z,11.60
2019-05-26T16:03:10.143Z,5.78
2019-05-26T16:06:15.017Z,22.22
2019-05-26T16:09:19.456Z,10.68
2019-05-26T16:12:21.453Z,4.45
2019-05-26T16:15:26.363Z,15.95
2019-05-26T16:18:28.078Z,5.35
2019-05-26T16:21:32.909Z,5.40
2019-05-26T16:24:36.359Z,7.37
2019-05-26T16:27:40.914Z,4.97
2019-05-26T16:30:42.927Z,6.45
2019-05-26T16:33:45.330Z,3.45
2019-05-26T16:36:48.407Z,7.75
2019-05-26T16:39:50.829Z,4.62
2019-05-26T16:42:52.526Z,6.53
2019-05-26T16:45:56.471Z,4.90
2019-05-26T16:48:57.079Z,5.33
2019-05-26T16:51:58.405Z,4.42
2019-05-26T16:54:59.720Z,3.10
2019-05-26T16:58:01.577Z,4.85
2019-05-26T17:01:02.863Z,3.90
2019-05-26T17:04:04.325Z,3.52
2019-05-26T17:07:07.076Z,5.35
2019-05-26T17:10:08.329Z,6.28
2019-05-26T17:13:10.194Z,5.50
2019-05-26T17:16:11.452Z,5.30
2019-05-26T17:19:13.751Z,4.90
2019-05-26T17:22:15.891Z,4.55
2019-05-26T17:25:18.637Z,7.67
2019-05-26T17:28:20.767Z,6.30
2019-05-26T17:31:23.089Z,6.58
2019-05-26T17:34:25.615Z,4.85
2019-05-26T17:37:28.755Z,6.55
2019-05-26T17:40:31.522Z,48.20
2019-05-26T17:43:34.097Z,7.08
2019-05-26T17:46:36.145Z,8.08
2019-05-26T17:49:40.632Z,8.80
2019-05-26T17:52:42.858Z,10.35
2019-05-26T17:55:45.257Z,9.75
2019-05-26T17:58:48.418Z,14.55
2019-05-26T18:01:53.151Z,10.90
2019-05-26T18:04:55.108Z,11.97
2019-05-26T18:07:56.389Z,14.70
2019-05-26T18:10:57.833Z,15.38
2019-05-26T18:14:00.197Z,14.28
2019-05-26T18:17:02.589Z,13.45
2019-05-26T18:20:07.751Z,13.18
2019-05-26T18:23:09.449Z,14.87
2019-05-26T18:26:10.745Z,16.00
2019-05-26T18:29:12.256Z,12.88
2019-05-26T18:32:13.567Z,15.65
2019-05-26T18:35:15.065Z,14.98
2019-05-26T18:38:16.438Z,18.55
2019-05-26T18:41:20.803Z,12.58
2019-05-26T18:44:22.226Z,12.90
2019-05-26T18:47:23.849Z,7.95
2019-05-26T18:50:25.647Z,10.50
2019-05-26T18:53:29.643Z,12.18
2019-05-26T18:56:30.631Z,12.00
2019-05-26T18:59:32.534Z,15.38
2019-05-26T19:02:34.204Z,9.48
2019-05-26T19:05:38.314Z,13.08
2019-05-26T19:08:40.846Z,15.98
2019-05-26T19:11:42.072Z,13.08
2019-05-26T19:14:43.592Z,14.10
2019-05-26T19:17:44.823Z,13.62
2019-05-26T19:20:46.560Z,14.47
2019-05-26T19:23:47.824Z,11.35
2019-05-26T19:26:51.407Z,15.08
2019-05-26T19:29:52.562Z,14.98
2019-05-26T19:32:53.813Z,14.83
2019-05-26T19:35:55.630Z,12.43
2019-05-26T19:38:58.451Z,12.60
2019-05-26T19:42:00.306Z,16.05
2019-05-26T19:45:04.663Z,13.78
2019-05-26T19:48:05.943Z,12.37
2019-05-26T19:51:10.446Z,16.30
2019-05-26T19:54:11.910Z,13.93
2019-05-26T19:57:13.647Z,16.12
2019-05-26T20:00:16.614Z,12.43
2019-05-26T20:03:20.759Z,15.90
2019-05-26T20:06:22.364Z,15.43
2019-05-26T20:09:24.142Z,13.22
2019-05-26T20:12:26.376Z,18.50
2019-05-26T20:15:30.169Z,16.35
2019-05-26T20:18:32.475Z,18.07
2019-05-26T20:21:34.459Z,13.72
2019-05-26T20:24:35.739Z,11.30
2019-05-26T20:27:39.366Z,13.90
2019-05-26T20:30:40.751Z,15.70
2019-05-26T20:33:43.081Z,10.93
2019-05-26T20:36:44.313Z,16.90
2019-05-26T20:39:46.256Z,14.18
2019-05-26T20:42:51.677Z,12.65
2019-05-26T20:45:57.070Z,16.23
2019-05-26T20:48:58.568Z,17.23
2019-05-26T20:52:02.475Z,13.90
2019-05-26T20:55:06.210Z,17.95
2019-05-26T20:58:08.505Z,13.65
2019-05-26T21:01:09.945Z,15.10
2019-05-26T21:04:11.627Z,18.30
2019-05-26T21:07:14.052Z,14.85
2019-05-26T21:10:16.360Z,14.65
2019-05-26T21:13:18.765Z,17.95
2019-05-26T21:16:20.355Z,18.02
2019-05-26T21:19:24.329Z,17.10
2019-05-26T21:22:26.818Z,18.75
2019-05-26T21:25:29.415Z,19.77
2019-05-26T21:28:30.823Z,16.80
2019-05-26T21:31:32.967Z,28.00
2019-05-26T21:34:34.270Z,24.05
2019-05-26T21:37:36.243Z,20.43
2019-05-26T21:40:38.164Z,19.15
2019-05-26T21:43:40.558Z,17.60
2019-05-26T21:46:41.839Z,15.72
2019-05-26T21:49:43.718Z,18.17
2019-05-26T21:52:45.534Z,17.70
2019-05-26T21:55:47.725Z,16.27
2019-05-26T21:58:50.439Z,16.85
2019-05-26T22:01:53.018Z,19.87
2019-05-26T22:04:54.860Z,19.25
2019-05-26T22:07:56.488Z,15.35
2019-05-26T22:10:57.952Z,18.57
2019-05-26T22:13:59.378Z,19.70
2019-05-26T22:17:00.633Z,21.27
2019-05-26T22:20:03.769Z,21.55
2019-05-26T22:23:05.277Z,20.17
2019-05-26T22:26:07.120Z,20.72
2019-05-26T22:29:08.749Z,17.67
2019-05-26T22:32:10.121Z,16.62
2019-05-26T22:35:11.786Z,22.50
2019-05-26T22:38:13.305Z,20.75
2019-05-26T22:41:14.605Z,20.62
2019-05-26T22:44:16.774Z,22.37
2019-05-26T22:47:18.001Z,22.77
2019-05-26T22:50:19.710Z,19.75
2019-05-26T22:53:20.996Z,25.45
2019-05-26T22:56:22.391Z,24.12
2019-05-26T22:59:23.650Z,23.77
2019-05-26T23:02:25.107Z,24.12
2019-05-26T23:05:26.326Z,23.55
2019-05-26T23:08:27.768Z,23.05
2019-05-26T23:11:29.109Z,30.97
2019-05-26T23:14:30.713Z,21.80
2019-05-26T23:17:31.935Z,28.07
2019-05-26T23:20:33.478Z,31.15
2019-05-26T23:23:35.513Z,21.57
2019-05-26T23:26:36.745Z,29.85
2019-05-26T23:29:38.171Z,28.55
2019-05-26T23:32:39.397Z,31.25
2019-05-26T23:35:40.833Z,27.67
2019-05-26T23:38:42.078Z,32.85
2019-05-26T23:41:43.749Z,30.88
2019-05-26T23:44:44.982Z,28.10
2019-05-26T23:47:46.240Z,28.17
2019-05-26T23:50:48.741Z,33.05
2019-05-26T23:53:49.938Z,28.75
2019-05-26T23:56:52.043Z,35.00
2019-05-26T23:59:54.961Z,28.75
